sensor_id;sensor_type;location;lat;lon;timestamp;P1;durP1;ratioP1;P2;durP2;ratioP2
59374;SDS011;45172;55.006;73.460;2023-07-13T00:00:20;12.93;;;3.58;;
59374;SDS011;45172;55.006;73.460;2023-07-13T00:02:47;13.70;;;3.65;;
59374;SDS011;45172;55.006;73.460;2023-07-13T00:05:14;8.77;;;3.60;;
59374;SDS011;45172;55.006;73.460;2023-07-13T00:07:40;12.70;;;3.90;;
59374;SDS011;45172;55.006;73.460;2023-07-13T00:10:07;9.02;;;3.78;;
59374;SDS011;45172;55.006;73.460;2023-07-13T00:12:36;15.82;;;4.00;;
59374;SDS011;45172;55.006;73.460;2023-07-13T00:15:04;20.83;;;4.45;;
59374;SDS011;45172;55.006;73.460;2023-07-13T00:17:38;8.27;;;3.92;;
59374;SDS011;45172;55.006;73.460;2023-07-13T00:20:05;9.25;;;4.40;;
59374;SDS011;45172;55.006;73.460;2023-07-13T00:22:32;14.85;;;3.95;;
59374;SDS011;45172;55.006;73.460;2023-07-13T00:24:59;14.15;;;4.05;;
59374;SDS011;45172;55.006;73.460;2023-07-13T00:27:25;13.68;;;4.07;;
59374;SDS011;45172;55.006;73.460;2023-07-13T00:29:57;8.23;;;3.83;;
59374;SDS011;45172;55.006;73.460;2023-07-13T00:32:24;13.02;;;4.45;;
59374;SDS011;45172;55.006;73.460;2023-07-13T00:34:51;13.80;;;4.18;;
59374;SDS011;45172;55.006;73.460;2023-07-13T00:37:18;11.05;;;3.90;;
59374;SDS011;45172;55.006;73.460;2023-07-13T00:39:45;19.88;;;4.30;;
59374;SDS011;45172;55.006;73.460;2023-07-13T00:42:11;16.77;;;4.22;;
59374;SDS011;45172;55.006;73.460;2023-07-13T00:44:37;13.18;;;4.35;;
59374;SDS011;45172;55.006;73.460;2023-07-13T00:47:05;52.10;;;29.20;;
59374;SDS011;45172;55.006;73.460;2023-07-13T00:49:32;21.63;;;8.68;;
59374;SDS011;45172;55.006;73.460;2023-07-13T00:52:07;17.98;;;6.80;;
59374;SDS011;45172;55.006;73.460;2023-07-13T00:54:39;16.00;;;5.20;;
59374;SDS011;45172;55.006;73.460;2023-07-13T00:57:12;18.17;;;5.05;;
59374;SDS011;45172;55.006;73.460;2023-07-13T00:59:42;21.08;;;4.60;;
59374;SDS011;45172;55.006;73.460;2023-07-13T01:02:12;15.32;;;5.22;;
59374;SDS011;45172;55.006;73.460;2023-07-13T01:04:38;30.00;;;21.13;;
59374;SDS011;45172;55.006;73.460;2023-07-13T01:07:06;15.88;;;6.22;;
59374;SDS011;45172;55.006;73.460;2023-07-13T01:09:32;19.77;;;5.18;;
59374;SDS011;45172;55.006;73.460;2023-07-13T01:11:59;19.45;;;5.07;;
59374;SDS011;45172;55.006;73.460;2023-07-13T01:14:26;15.85;;;4.53;;
59374;SDS011;45172;55.006;73.460;2023-07-13T01:16:52;13.00;;;5.22;;
59374;SDS011;45172;55.006;73.460;2023-07-13T01:19:33;17.20;;;4.50;;
59374;SDS011;45172;55.006;73.460;2023-07-13T01:22:04;16.45;;;5.15;;
59374;SDS011;45172;55.006;73.460;2023-07-13T01:24:37;22.60;;;4.85;;
59374;SDS011;45172;55.006;73.460;2023-07-13T01:27:06;20.23;;;4.80;;
59374;SDS011;45172;55.006;73.460;2023-07-13T01:29:34;11.68;;;4.25;;
59374;SDS011;45172;55.006;73.460;2023-07-13T01:32:10;15.13;;;4.38;;
59374;SDS011;45172;55.006;73.460;2023-07-13T01:34:39;21.73;;;4.72;;
59374;SDS011;45172;55.006;73.460;2023-07-13T01:37:08;23.95;;;4.47;;
59374;SDS011;45172;55.006;73.460;2023-07-13T01:39:37;33.30;;;4.80;;
59374;SDS011;45172;55.006;73.460;2023-07-13T01:42:03;30.80;;;5.10;;
59374;SDS011;45172;55.006;73.460;2023-07-13T01:44:29;39.78;;;5.18;;
59374;SDS011;45172;55.006;73.460;2023-07-13T01:46:55;30.27;;;5.38;;
59374;SDS011;45172;55.006;73.460;2023-07-13T01:49:21;27.05;;;5.32;;
59374;SDS011;45172;55.006;73.460;2023-07-13T01:51:48;37.40;;;6.10;;
59374;SDS011;45172;55.006;73.460;2023-07-13T01:54:14;26.60;;;5.57;;
59374;SDS011;45172;55.006;73.460;2023-07-13T01:56:40;21.40;;;5.68;;
59374;SDS011;45172;55.006;73.460;2023-07-13T01:59:08;23.42;;;5.60;;
59374;SDS011;45172;55.006;73.460;2023-07-13T02:01:34;23.23;;;6.13;;
59374;SDS011;45172;55.006;73.460;2023-07-13T02:04:01;41.67;;;5.95;;
59374;SDS011;45172;55.006;73.460;2023-07-13T02:06:28;17.77;;;5.20;;
59374;SDS011;45172;55.006;73.460;2023-07-13T02:08:54;21.98;;;5.07;;
59374;SDS011;45172;55.006;73.460;2023-07-13T02:11:21;22.70;;;5.32;;
59374;SDS011;45172;55.006;73.460;2023-07-13T02:13:47;36.10;;;5.68;;
59374;SDS011;45172;55.006;73.460;2023-07-13T02:16:14;29.75;;;5.95;;
59374;SDS011;45172;55.006;73.460;2023-07-13T02:18:40;36.05;;;6.03;;
59374;SDS011;45172;55.006;73.460;2023-07-13T02:21:06;21.55;;;5.47;;
59374;SDS011;45172;55.006;73.460;2023-07-13T02:23:32;15.00;;;5.50;;
59374;SDS011;45172;55.006;73.460;2023-07-13T02:25:59;16.27;;;5.40;;
59374;SDS011;45172;55.006;73.460;2023-07-13T02:28:28;16.88;;;5.78;;
59374;SDS011;45172;55.006;73.460;2023-07-13T02:30:54;16.33;;;5.25;;
59374;SDS011;45172;55.006;73.460;2023-07-13T02:33:20;21.73;;;5.97;;
59374;SDS011;45172;55.006;73.460;2023-07-13T02:35:47;12.98;;;5.72;;
59374;SDS011;45172;55.006;73.460;2023-07-13T02:38:13;16.45;;;5.50;;
59374;SDS011;45172;55.006;73.460;2023-07-13T02:40:40;17.50;;;6.50;;
59374;SDS011;45172;55.006;73.460;2023-07-13T02:43:06;15.00;;;6.05;;
59374;SDS011;45172;55.006;73.460;2023-07-13T02:45:32;33.05;;;6.70;;
59374;SDS011;45172;55.006;73.460;2023-07-13T02:47:58;24.60;;;6.30;;
59374;SDS011;45172;55.006;73.460;2023-07-13T02:50:24;21.42;;;6.85;;
59374;SDS011;45172;55.006;73.460;2023-07-13T02:52:51;31.58;;;6.72;;
59374;SDS011;45172;55.006;73.460;2023-07-13T02:55:17;33.67;;;7.22;;
59374;SDS011;45172;55.006;73.460;2023-07-13T02:57:43;28.50;;;6.93;;
59374;SDS011;45172;55.006;73.460;2023-07-13T03:00:10;17.63;;;6.50;;
59374;SDS011;45172;55.006;73.460;2023-07-13T03:02:36;25.45;;;6.30;;
59374;SDS011;45172;55.006;73.460;2023-07-13T03:05:02;26.80;;;6.40;;
59374;SDS011;45172;55.006;73.460;2023-07-13T03:07:29;20.80;;;6.53;;
59374;SDS011;45172;55.006;73.460;2023-07-13T03:09:57;20.85;;;6.95;;
59374;SDS011;45172;55.006;73.460;2023-07-13T03:12:24;31.35;;;7.60;;
59374;SDS011;45172;55.006;73.460;2023-07-13T03:15:01;27.83;;;7.10;;
59374;SDS011;45172;55.006;73.460;2023-07-13T03:17:27;26.13;;;6.93;;
59374;SDS011;45172;55.006;73.460;2023-07-13T03:19:53;22.85;;;6.85;;
59374;SDS011;45172;55.006;73.460;2023-07-13T03:22:20;18.80;;;6.95;;
59374;SDS011;45172;55.006;73.460;2023-07-13T03:24:49;18.20;;;6.70;;
59374;SDS011;45172;55.006;73.460;2023-07-13T03:27:16;24.38;;;7.20;;
59374;SDS011;45172;55.006;73.460;2023-07-13T03:29:44;29.15;;;7.25;;
59374;SDS011;45172;55.006;73.460;2023-07-13T03:32:10;40.63;;;7.50;;
59374;SDS011;45172;55.006;73.460;2023-07-13T03:34:36;29.70;;;7.40;;
59374;SDS011;45172;55.006;73.460;2023-07-13T03:37:02;25.13;;;7.38;;
59374;SDS011;45172;55.006;73.460;2023-07-13T03:39:29;26.23;;;7.20;;
59374;SDS011;45172;55.006;73.460;2023-07-13T03:41:55;62.90;;;8.15;;
59374;SDS011;45172;55.006;73.460;2023-07-13T03:44:21;23.88;;;7.22;;
59374;SDS011;45172;55.006;73.460;2023-07-13T03:46:47;28.95;;;7.88;;
59374;SDS011;45172;55.006;73.460;2023-07-13T03:49:13;25.10;;;7.20;;
59374;SDS011;45172;55.006;73.460;2023-07-13T03:51:39;22.15;;;7.28;;
59374;SDS011;45172;55.006;73.460;2023-07-13T03:54:05;21.75;;;7.63;;
59374;SDS011;45172;55.006;73.460;2023-07-13T03:56:32;20.48;;;8.88;;
59374;SDS011;45172;55.006;73.460;2023-07-13T03:58:58;25.00;;;9.10;;
59374;SDS011;45172;55.006;73.460;2023-07-13T04:01:26;23.77;;;8.02;;
59374;SDS011;45172;55.006;73.460;2023-07-13T04:03:52;29.13;;;8.07;;
59374;SDS011;45172;55.006;73.460;2023-07-13T04:06:20;28.45;;;8.80;;
59374;SDS011;45172;55.006;73.460;2023-07-13T04:08:50;20.90;;;7.88;;
59374;SDS011;45172;55.006;73.460;2023-07-13T04:11:19;27.63;;;8.05;;
59374;SDS011;45172;55.006;73.460;2023-07-13T04:13:46;39.45;;;9.65;;
59374;SDS011;45172;55.006;73.460;2023-07-13T04:16:14;42.58;;;10.77;;
59374;SDS011;45172;55.006;73.460;2023-07-13T04:18:41;40.97;;;9.80;;
59374;SDS011;45172;55.006;73.460;2023-07-13T04:21:07;26.52;;;9.27;;
59374;SDS011;45172;55.006;73.460;2023-07-13T04:23:39;55.65;;;9.77;;
59374;SDS011;45172;55.006;73.460;2023-07-13T04:26:06;41.58;;;9.95;;
59374;SDS011;45172;55.006;73.460;2023-07-13T04:28:33;36.90;;;9.43;;
59374;SDS011;45172;55.006;73.460;2023-07-13T04:31:00;35.63;;;10.20;;
59374;SDS011;45172;55.006;73.460;2023-07-13T04:33:26;37.03;;;9.35;;
59374;SDS011;45172;55.006;73.460;2023-07-13T04:35:54;36.78;;;9.23;;
59374;SDS011;45172;55.006;73.460;2023-07-13T04:38:22;29.92;;;9.30;;
59374;SDS011;45172;55.006;73.460;2023-07-13T04:40:51;34.17;;;9.65;;
59374;SDS011;45172;55.006;73.460;2023-07-13T04:43:18;34.38;;;9.68;;
59374;SDS011;45172;55.006;73.460;2023-07-13T04:45:44;50.00;;;10.15;;
59374;SDS011;45172;55.006;73.460;2023-07-13T04:48:11;35.50;;;9.95;;
59374;SDS011;45172;55.006;73.460;2023-07-13T04:50:38;34.45;;;11.38;;
59374;SDS011;45172;55.006;73.460;2023-07-13T04:53:04;38.33;;;12.18;;
59374;SDS011;45172;55.006;73.460;2023-07-13T04:55:31;51.95;;;11.25;;
59374;SDS011;45172;55.006;73.460;2023-07-13T04:57:57;27.13;;;10.38;;
59374;SDS011;45172;55.006;73.460;2023-07-13T05:00:26;38.65;;;11.23;;
59374;SDS011;45172;55.006;73.460;2023-07-13T05:02:53;41.30;;;10.82;;
59374;SDS011;45172;55.006;73.460;2023-07-13T05:05:21;41.00;;;11.32;;
59374;SDS011;45172;55.006;73.460;2023-07-13T05:07:47;30.80;;;10.15;;
59374;SDS011;45172;55.006;73.460;2023-07-13T05:10:13;28.63;;;9.48;;
59374;SDS011;45172;55.006;73.460;2023-07-13T05:15:12;35.97;;;9.75;;
59374;SDS011;45172;55.006;73.460;2023-07-13T05:17:38;26.75;;;9.15;;
59374;SDS011;45172;55.006;73.460;2023-07-13T05:20:06;32.97;;;9.75;;
59374;SDS011;45172;55.006;73.460;2023-07-13T05:22:34;38.40;;;11.80;;
59374;SDS011;45172;55.006;73.460;2023-07-13T05:25:04;51.47;;;12.95;;
59374;SDS011;45172;55.006;73.460;2023-07-13T05:27:31;45.72;;;11.15;;
59374;SDS011;45172;55.006;73.460;2023-07-13T05:29:57;43.83;;;11.98;;
59374;SDS011;45172;55.006;73.460;2023-07-13T05:32:24;51.97;;;12.80;;
59374;SDS011;45172;55.006;73.460;2023-07-13T05:34:50;63.58;;;14.15;;
59374;SDS011;45172;55.006;73.460;2023-07-13T05:37:16;62.13;;;14.38;;
59374;SDS011;45172;55.006;73.460;2023-07-13T05:39:45;68.97;;;13.27;;
59374;SDS011;45172;55.006;73.460;2023-07-13T05:42:11;46.83;;;11.18;;
59374;SDS011;45172;55.006;73.460;2023-07-13T05:44:38;42.38;;;11.15;;
59374;SDS011;45172;55.006;73.460;2023-07-13T05:47:04;43.33;;;11.05;;
59374;SDS011;45172;55.006;73.460;2023-07-13T05:49:31;43.45;;;11.77;;
59374;SDS011;45172;55.006;73.460;2023-07-13T05:51:57;57.22;;;12.43;;
59374;SDS011;45172;55.006;73.460;2023-07-13T05:54:23;51.15;;;12.20;;
59374;SDS011;45172;55.006;73.460;2023-07-13T05:56:49;46.00;;;12.40;;
59374;SDS011;45172;55.006;73.460;2023-07-13T05:59:15;56.53;;;12.38;;
59374;SDS011;45172;55.006;73.460;2023-07-13T06:01:43;57.13;;;12.73;;
59374;SDS011;45172;55.006;73.460;2023-07-13T06:04:10;50.05;;;12.27;;
59374;SDS011;45172;55.006;73.460;2023-07-13T06:06:36;60.65;;;12.40;;
59374;SDS011;45172;55.006;73.460;2023-07-13T06:09:02;67.60;;;13.98;;
59374;SDS011;45172;55.006;73.460;2023-07-13T06:11:29;57.88;;;13.73;;
59374;SDS011;45172;55.006;73.460;2023-07-13T06:13:55;99.47;;;17.35;;
59374;SDS011;45172;55.006;73.460;2023-07-13T06:16:21;88.20;;;15.68;;
59374;SDS011;45172;55.006;73.460;2023-07-13T06:18:48;184.18;;;19.15;;
59374;SDS011;45172;55.006;73.460;2023-07-13T06:21:15;181.82;;;25.13;;
59374;SDS011;45172;55.006;73.460;2023-07-13T06:23:44;166.57;;;26.38;;
59374;SDS011;45172;55.006;73.460;2023-07-13T06:26:13;140.63;;;26.85;;
59374;SDS011;45172;55.006;73.460;2023-07-13T06:28:40;116.78;;;21.40;;
59374;SDS011;45172;55.006;73.460;2023-07-13T06:31:07;148.00;;;21.98;;
59374;SDS011;45172;55.006;73.460;2023-07-13T06:33:35;166.90;;;24.75;;
59374;SDS011;45172;55.006;73.460;2023-07-13T06:36:03;196.45;;;28.42;;
59374;SDS011;45172;55.006;73.460;2023-07-13T06:38:42;181.40;;;29.30;;
59374;SDS011;45172;55.006;73.460;2023-07-13T06:41:08;189.85;;;27.65;;
59374;SDS011;45172;55.006;73.460;2023-07-13T06:43:34;150.85;;;23.40;;
59374;SDS011;45172;55.006;73.460;2023-07-13T06:46:00;207.18;;;31.90;;
59374;SDS011;45172;55.006;73.460;2023-07-13T06:48:27;254.15;;;34.67;;
59374;SDS011;45172;55.006;73.460;2023-07-13T06:50:53;178.18;;;29.50;;
59374;SDS011;45172;55.006;73.460;2023-07-13T06:53:20;138.30;;;24.70;;
59374;SDS011;45172;55.006;73.460;2023-07-13T06:55:47;162.15;;;26.63;;
59374;SDS011;45172;55.006;73.460;2023-07-13T06:58:15;218.32;;;35.13;;
59374;SDS011;45172;55.006;73.460;2023-07-13T07:00:42;337.58;;;47.90;;
59374;SDS011;45172;55.006;73.460;2023-07-13T07:03:09;234.80;;;40.50;;
59374;SDS011;45172;55.006;73.460;2023-07-13T07:05:35;256.63;;;33.15;;
59374;SDS011;45172;55.006;73.460;2023-07-13T07:08:01;200.52;;;29.65;;
59374;SDS011;45172;55.006;73.460;2023-07-13T07:10:29;218.73;;;32.17;;
59374;SDS011;45172;55.006;73.460;2023-07-13T07:12:56;191.70;;;31.13;;
59374;SDS011;45172;55.006;73.460;2023-07-13T07:15:22;292.42;;;44.50;;
59374;SDS011;45172;55.006;73.460;2023-07-13T07:17:48;287.83;;;43.78;;
59374;SDS011;45172;55.006;73.460;2023-07-13T07:20:15;302.77;;;42.00;;
59374;SDS011;45172;55.006;73.460;2023-07-13T07:22:41;324.42;;;44.65;;
59374;SDS011;45172;55.006;73.460;2023-07-13T07:25:07;329.35;;;48.47;;
59374;SDS011;45172;55.006;73.460;2023-07-13T07:27:33;253.13;;;40.65;;
59374;SDS011;45172;55.006;73.460;2023-07-13T07:30:00;124.82;;;20.95;;
59374;SDS011;45172;55.006;73.460;2023-07-13T07:32:28;139.85;;;20.52;;
59374;SDS011;45172;55.006;73.460;2023-07-13T07:34:56;113.03;;;18.00;;
59374;SDS011;45172;55.006;73.460;2023-07-13T07:37:23;109.97;;;20.73;;
59374;SDS011;45172;55.006;73.460;2023-07-13T07:39:50;99.10;;;17.80;;
59374;SDS011;45172;55.006;73.460;2023-07-13T07:42:16;148.48;;;24.08;;
59374;SDS011;45172;55.006;73.460;2023-07-13T07:44:42;103.95;;;18.58;;
59374;SDS011;45172;55.006;73.460;2023-07-13T07:47:11;120.80;;;21.58;;
59374;SDS011;45172;55.006;73.460;2023-07-13T07:49:37;150.30;;;25.60;;
59374;SDS011;45172;55.006;73.460;2023-07-13T07:52:03;157.52;;;26.70;;
59374;SDS011;45172;55.006;73.460;2023-07-13T07:54:30;165.32;;;27.17;;
59374;SDS011;45172;55.006;73.460;2023-07-13T07:56:56;166.77;;;23.17;;
59374;SDS011;45172;55.006;73.460;2023-07-13T07:59:22;137.40;;;22.70;;
59374;SDS011;45172;55.006;73.460;2023-07-13T08:01:48;146.90;;;25.08;;
59374;SDS011;45172;55.006;73.460;2023-07-13T08:04:16;158.38;;;23.60;;
59374;SDS011;45172;55.006;73.460;2023-07-13T08:06:43;122.97;;;18.88;;
59374;SDS011;45172;55.006;73.460;2023-07-13T08:09:09;102.97;;;18.98;;
59374;SDS011;45172;55.006;73.460;2023-07-13T08:11:36;127.10;;;19.45;;
59374;SDS011;45172;55.006;73.460;2023-07-13T08:14:02;109.30;;;20.58;;
59374;SDS011;45172;55.006;73.460;2023-07-13T08:16:29;79.88;;;15.68;;
59374;SDS011;45172;55.006;73.460;2023-07-13T08:18:55;83.05;;;15.43;;
59374;SDS011;45172;55.006;73.460;2023-07-13T08:21:21;85.35;;;15.05;;
59374;SDS011;45172;55.006;73.460;2023-07-13T08:23:47;81.43;;;15.75;;
59374;SDS011;45172;55.006;73.460;2023-07-13T08:26:13;59.38;;;13.15;;
59374;SDS011;45172;55.006;73.460;2023-07-13T08:28:40;56.70;;;12.00;;
59374;SDS011;45172;55.006;73.460;2023-07-13T08:31:07;64.70;;;12.55;;
59374;SDS011;45172;55.006;73.460;2023-07-13T08:33:34;43.38;;;10.18;;
59374;SDS011;45172;55.006;73.460;2023-07-13T08:36:03;33.78;;;8.57;;
59374;SDS011;45172;55.006;73.460;2023-07-13T08:38:30;32.35;;;8.05;;
59374;SDS011;45172;55.006;73.460;2023-07-13T08:40:58;26.83;;;8.98;;
59374;SDS011;45172;55.006;73.460;2023-07-13T08:43:28;44.10;;;8.80;;
59374;SDS011;45172;55.006;73.460;2023-07-13T08:45:59;39.42;;;10.48;;
59374;SDS011;45172;55.006;73.460;2023-07-13T08:48:35;34.33;;;9.55;;
59374;SDS011;45172;55.006;73.460;2023-07-13T08:57:14;26.38;;;9.00;;
59374;SDS011;45172;55.006;73.460;2023-07-13T08:59:42;46.67;;;9.75;;
59374;SDS011;45172;55.006;73.460;2023-07-13T09:05:14;39.83;;;11.20;;
59374;SDS011;45172;55.006;73.460;2023-07-13T09:07:55;59.73;;;12.00;;
59374;SDS011;45172;55.006;73.460;2023-07-13T09:10:31;54.30;;;12.43;;
59374;SDS011;45172;55.006;73.460;2023-07-13T09:15:48;45.58;;;11.10;;
59374;SDS011;45172;55.006;73.460;2023-07-13T09:18:28;41.33;;;10.23;;
59374;SDS011;45172;55.006;73.460;2023-07-13T09:21:07;36.05;;;9.73;;
59374;SDS011;45172;55.006;73.460;2023-07-13T09:23:38;35.67;;;7.80;;
59374;SDS011;45172;55.006;73.460;2023-07-13T09:26:06;31.45;;;7.55;;
59374;SDS011;45172;55.006;73.460;2023-07-13T09:28:45;25.95;;;7.30;;
59374;SDS011;45172;55.006;73.460;2023-07-13T09:31:15;31.77;;;7.53;;
59374;SDS011;45172;55.006;73.460;2023-07-13T09:34:09;48.15;;;7.53;;
59374;SDS011;45172;55.006;73.460;2023-07-13T09:36:36;33.45;;;7.95;;
59374;SDS011;45172;55.006;73.460;2023-07-13T09:41:55;24.92;;;7.57;;
59374;SDS011;45172;55.006;73.460;2023-07-13T09:47:18;30.55;;;7.53;;
59374;SDS011;45172;55.006;73.460;2023-07-13T09:50:14;21.05;;;5.97;;
59374;SDS011;45172;55.006;73.460;2023-07-13T09:57:56;21.95;;;6.55;;
59374;SDS011;45172;55.006;73.460;2023-07-13T10:00:24;21.90;;;5.72;;
59374;SDS011;45172;55.006;73.460;2023-07-13T10:03:09;22.35;;;6.30;;
59374;SDS011;45172;55.006;73.460;2023-07-13T10:05:46;20.50;;;6.22;;
59374;SDS011;45172;55.006;73.460;2023-07-13T10:10:53;30.92;;;6.53;;
59374;SDS011;45172;55.006;73.460;2023-07-13T10:13:31;21.63;;;5.32;;
59374;SDS011;45172;55.006;73.460;2023-07-13T10:16:02;15.43;;;4.93;;
59374;SDS011;45172;55.006;73.460;2023-07-13T10:18:31;19.05;;;5.13;;
59374;SDS011;45172;55.006;73.460;2023-07-13T10:21:16;13.67;;;4.83;;
59374;SDS011;45172;55.006;73.460;2023-07-13T10:23:50;15.15;;;4.30;;
59374;SDS011;45172;55.006;73.460;2023-07-13T10:26:39;8.85;;;3.90;;
59374;SDS011;45172;55.006;73.460;2023-07-13T10:29:12;9.90;;;3.67;;
59374;SDS011;45172;55.006;73.460;2023-07-13T10:31:41;6.93;;;3.50;;
59374;SDS011;45172;55.006;73.460;2023-07-13T10:34:11;11.15;;;3.60;;
59374;SDS011;45172;55.006;73.460;2023-07-13T10:36:40;7.88;;;3.40;;
59374;SDS011;45172;55.006;73.460;2023-07-13T10:39:09;15.73;;;3.85;;
59374;SDS011;45172;55.006;73.460;2023-07-13T10:41:43;13.50;;;3.90;;
59374;SDS011;45172;55.006;73.460;2023-07-13T10:44:15;8.02;;;3.92;;
59374;SDS011;45172;55.006;73.460;2023-07-13T10:46:47;10.77;;;4.68;;
59374;SDS011;45172;55.006;73.460;2023-07-13T10:49:14;10.50;;;4.80;;
59374;SDS011;45172;55.006;73.460;2023-07-13T10:51:43;9.65;;;4.25;;
59374;SDS011;45172;55.006;73.460;2023-07-13T10:57:20;9.55;;;4.60;;
59374;SDS011;45172;55.006;73.460;2023-07-13T10:59:48;10.93;;;3.92;;
59374;SDS011;45172;55.006;73.460;2023-07-13T11:02:34;8.95;;;3.67;;
59374;SDS011;45172;55.006;73.460;2023-07-13T11:05:13;8.85;;;4.03;;
59374;SDS011;45172;55.006;73.460;2023-07-13T11:10:52;16.67;;;3.90;;
59374;SDS011;45172;55.006;73.460;2023-07-13T11:16:05;25.63;;;4.32;;
59374;SDS011;45172;55.006;73.460;2023-07-13T11:18:38;7.53;;;3.22;;
59374;SDS011;45172;55.006;73.460;2023-07-13T11:21:15;23.63;;;4.13;;
59374;SDS011;45172;55.006;73.460;2023-07-13T11:23:52;9.82;;;3.20;;
59374;SDS011;45172;55.006;73.460;2023-07-13T11:31:57;9.07;;;3.03;;
59374;SDS011;45172;55.006;73.460;2023-07-13T11:34:46;5.65;;;3.03;;
59374;SDS011;45172;55.006;73.460;2023-07-13T11:37:13;10.48;;;3.25;;
59374;SDS011;45172;55.006;73.460;2023-07-13T11:39:44;15.13;;;3.30;;
59374;SDS011;45172;55.006;73.460;2023-07-13T11:42:13;10.50;;;3.45;;
59374;SDS011;45172;55.006;73.460;2023-07-13T11:44:42;14.85;;;3.58;;
59374;SDS011;45172;55.006;73.460;2023-07-13T11:47:14;23.88;;;4.30;;
59374;SDS011;45172;55.006;73.460;2023-07-13T11:49:53;9.82;;;4.05;;
59374;SDS011;45172;55.006;73.460;2023-07-13T11:52:31;8.40;;;3.65;;
59374;SDS011;45172;55.006;73.460;2023-07-13T11:55:02;16.60;;;3.97;;
59374;SDS011;45172;55.006;73.460;2023-07-13T11:57:58;9.77;;;3.30;;
59374;SDS011;45172;55.006;73.460;2023-07-13T12:00:30;10.65;;;3.40;;
59374;SDS011;45172;55.006;73.460;2023-07-13T12:02:59;23.92;;;3.78;;
59374;SDS011;45172;55.006;73.460;2023-07-13T12:05:28;17.65;;;3.72;;
59374;SDS011;45172;55.006;73.460;2023-07-13T12:07:57;8.07;;;3.55;;
59374;SDS011;45172;55.006;73.460;2023-07-13T12:15:44;6.20;;;3.58;;
59374;SDS011;45172;55.006;73.460;2023-07-13T12:18:21;61.17;;;5.93;;
59374;SDS011;45172;55.006;73.460;2023-07-13T12:20:49;19.58;;;4.47;;
59374;SDS011;45172;55.006;73.460;2023-07-13T12:25:53;22.80;;;4.30;;
59374;SDS011;45172;55.006;73.460;2023-07-13T12:31:02;16.42;;;4.32;;
59374;SDS011;45172;55.006;73.460;2023-07-13T12:33:31;11.98;;;4.20;;
59374;SDS011;45172;55.006;73.460;2023-07-13T12:36:00;12.40;;;4.20;;
59374;SDS011;45172;55.006;73.460;2023-07-13T12:38:30;19.90;;;5.35;;
59374;SDS011;45172;55.006;73.460;2023-07-13T12:40:57;18.80;;;6.40;;
59374;SDS011;45172;55.006;73.460;2023-07-13T12:43:25;23.70;;;10.60;;
59374;SDS011;45172;55.006;73.460;2023-07-13T12:48:50;34.90;;;13.35;;
59374;SDS011;45172;55.006;73.460;2023-07-13T12:51:23;33.03;;;12.30;;
59374;SDS011;45172;55.006;73.460;2023-07-13T12:53:55;36.80;;;7.13;;
59374;SDS011;45172;55.006;73.460;2023-07-13T12:56:26;22.20;;;5.85;;
59374;SDS011;45172;55.006;73.460;2023-07-13T12:58:58;20.30;;;5.07;;
59374;SDS011;45172;55.006;73.460;2023-07-13T13:01:28;28.15;;;5.43;;
59374;SDS011;45172;55.006;73.460;2023-07-13T13:04:00;19.85;;;5.95;;
59374;SDS011;45172;55.006;73.460;2023-07-13T13:06:32;19.67;;;5.50;;
59374;SDS011;45172;55.006;73.460;2023-07-13T13:08:58;29.23;;;5.78;;
59374;SDS011;45172;55.006;73.460;2023-07-13T13:11:25;45.70;;;6.28;;
59374;SDS011;45172;55.006;73.460;2023-07-13T13:13:53;39.90;;;6.28;;
59374;SDS011;45172;55.006;73.460;2023-07-13T13:16:21;23.60;;;5.38;;
59374;SDS011;45172;55.006;73.460;2023-07-13T13:19:15;34.45;;;5.10;;
59374;SDS011;45172;55.006;73.460;2023-07-13T13:21:44;27.20;;;5.05;;
59374;SDS011;45172;55.006;73.460;2023-07-13T13:24:22;33.05;;;5.38;;
59374;SDS011;45172;55.006;73.460;2023-07-13T13:26:51;20.38;;;4.50;;
59374;SDS011;45172;55.006;73.460;2023-07-13T13:29:19;17.85;;;4.38;;
59374;SDS011;45172;55.006;73.460;2023-07-13T13:31:46;23.83;;;4.57;;
59374;SDS011;45172;55.006;73.460;2023-07-13T13:34:16;19.52;;;4.10;;
59374;SDS011;45172;55.006;73.460;2023-07-13T13:36:43;20.80;;;4.90;;
59374;SDS011;45172;55.006;73.460;2023-07-13T13:39:19;28.35;;;5.22;;
59374;SDS011;45172;55.006;73.460;2023-07-13T13:42:02;20.67;;;5.15;;
59374;SDS011;45172;55.006;73.460;2023-07-13T13:44:28;15.90;;;4.90;;
59374;SDS011;45172;55.006;73.460;2023-07-13T13:46:55;18.15;;;4.68;;
59374;SDS011;45172;55.006;73.460;2023-07-13T13:49:23;13.40;;;4.22;;
59374;SDS011;45172;55.006;73.460;2023-07-13T13:51:51;25.38;;;4.25;;
59374;SDS011;45172;55.006;73.460;2023-07-13T13:54:19;22.58;;;4.88;;
59374;SDS011;45172;55.006;73.460;2023-07-13T13:56:48;27.15;;;5.05;;
59374;SDS011;45172;55.006;73.460;2023-07-13T13:59:16;25.45;;;5.05;;
59374;SDS011;45172;55.006;73.460;2023-07-13T14:01:44;12.77;;;4.82;;
59374;SDS011;45172;55.006;73.460;2023-07-13T14:04:20;25.42;;;4.80;;
59374;SDS011;45172;55.006;73.460;2023-07-13T14:06:48;14.15;;;4.45;;
59374;SDS011;45172;55.006;73.460;2023-07-13T14:09:15;22.90;;;4.85;;
59374;SDS011;45172;55.006;73.460;2023-07-13T14:11:43;13.60;;;5.13;;
59374;SDS011;45172;55.006;73.460;2023-07-13T14:14:18;18.83;;;6.20;;
59374;SDS011;45172;55.006;73.460;2023-07-13T14:16:49;16.20;;;4.95;;
59374;SDS011;45172;55.006;73.460;2023-07-13T14:19:22;13.05;;;4.70;;
59374;SDS011;45172;55.006;73.460;2023-07-13T14:21:48;18.27;;;4.65;;
59374;SDS011;45172;55.006;73.460;2023-07-13T14:24:15;51.58;;;20.88;;
59374;SDS011;45172;55.006;73.460;2023-07-13T14:26:41;46.45;;;7.25;;
59374;SDS011;45172;55.006;73.460;2023-07-13T14:29:12;61.83;;;7.20;;
59374;SDS011;45172;55.006;73.460;2023-07-13T14:31:50;66.53;;;11.77;;
59374;SDS011;45172;55.006;73.460;2023-07-13T14:34:16;67.28;;;11.05;;
59374;SDS011;45172;55.006;73.460;2023-07-13T14:36:46;69.72;;;23.40;;
59374;SDS011;45172;55.006;73.460;2023-07-13T14:39:15;54.45;;;16.90;;
59374;SDS011;45172;55.006;73.460;2023-07-13T14:41:44;84.30;;;23.50;;
59374;SDS011;45172;55.006;73.460;2023-07-13T14:44:11;80.38;;;24.75;;
59374;SDS011;45172;55.006;73.460;2023-07-13T14:46:38;24.60;;;5.95;;
59374;SDS011;45172;55.006;73.460;2023-07-13T14:49:07;30.25;;;5.30;;
59374;SDS011;45172;55.006;73.460;2023-07-13T14:52:18;23.92;;;4.97;;
59374;SDS011;45172;55.006;73.460;2023-07-13T14:54:45;28.58;;;4.57;;
59374;SDS011;45172;55.006;73.460;2023-07-13T14:57:16;35.55;;;4.72;;
59374;SDS011;45172;55.006;73.460;2023-07-13T14:59:47;36.13;;;5.03;;
59374;SDS011;45172;55.006;73.460;2023-07-13T15:04:46;21.25;;;4.53;;
59374;SDS011;45172;55.006;73.460;2023-07-13T15:07:12;24.42;;;4.40;;
59374;SDS011;45172;55.006;73.460;2023-07-13T15:09:41;37.20;;;4.78;;
59374;SDS011;45172;55.006;73.460;2023-07-13T15:12:08;26.35;;;4.50;;
59374;SDS011;45172;55.006;73.460;2023-07-13T15:14:34;21.08;;;4.30;;
59374;SDS011;45172;55.006;73.460;2023-07-13T15:17:01;24.67;;;4.13;;
59374;SDS011;45172;55.006;73.460;2023-07-13T15:19:27;18.67;;;4.63;;
59374;SDS011;45172;55.006;73.460;2023-07-13T15:21:55;20.30;;;4.15;;
59374;SDS011;45172;55.006;73.460;2023-07-13T15:24:23;21.90;;;4.82;;